Time;durP1;ratioP1;P1;durP2;ratioP2;P2;SDS_P1;SDS_P2;PMS_P1;PMS_P2;Temp;Humidity;BMP_temperature;BMP_pressure;BME280_temperature;BME280_humidity;BME280_pressure;Samples;Min_cycle;Max_cycle;Signal;HPM_P1;HPM_P2
2022/10/05 00:00:15;;;;;;;14.00;11.33;;;13.60;99.90;;;;;;5042885;28;20538;-79
2022/10/05 00:02:45;;;;;;;12.00;10.57;;;13.60;99.90;;;;;;5040833;28;20470;-80
2022/10/05 00:05:23;;;;;;;16.63;10.50;;;13.60;99.90;;;;;;5042115;28;20474;-81
2022/10/05 00:07:53;;;;;;;11.67;10.47;;;13.60;99.90;;;;;;5043728;28;20952;-80
2022/10/05 00:10:22;;;;;;;10.60;9.60;;;13.60;99.90;;;;;;5045147;28;20454;-81
2022/10/05 00:12:50;;;;;;;11.27;10.17;;;13.60;99.90;;;;;;5043288;28;20465;-80
2022/10/05 00:15:20;;;;;;;12.23;10.70;;;13.60;99.90;;;;;;5041280;28;20489;-80
2022/10/05 00:17:48;;;;;;;13.13;11.17;;;13.60;99.90;;;;;;5040770;28;20458;-80
2022/10/05 00:20:21;;;;;;;11.87;10.67;;;13.60;99.90;;;;;;5041205;28;20868;-81
2022/10/05 00:22:56;;;;;;;12.63;10.30;;;13.60;99.90;;;;;;5041863;28;20451;-80
2022/10/05 00:25:24;;;;;;;12.77;10.90;;;13.60;99.90;;;;;;5040817;28;20489;-80
2022/10/05 00:27:56;;;;;;;12.73;10.73;;;13.60;99.90;;;;;;5041297;28;20466;-82
2022/10/05 00:30:26;;;;;;;13.50;10.50;;;13.60;99.90;;;;;;5040558;28;20474;-79
2022/10/05 00:32:54;;;;;;;12.50;10.20;;;13.60;99.90;;;;;;5040869;28;20443;-81
2022/10/05 00:35:28;;;;;;;11.70;10.50;;;13.60;99.90;;;;;;5041472;28;20470;-80
2022/10/05 00:37:58;;;;;;;15.10;10.10;;;13.70;99.90;;;;;;5042493;28;20443;-81
2022/10/05 00:40:38;;;;;;;13.63;10.57;;;13.70;99.90;;;;;;5043602;28;20528;-80
2022/10/05 00:43:23;;;;;;;15.30;10.97;;;13.70;99.90;;;;;;5044183;28;20447;-80
2022/10/05 00:46:00;;;;;;;12.80;10.37;;;13.70;99.90;;;;;;5043919;28;20447;-82
2022/10/05 00:48:36;;;;;;;11.73;10.50;;;13.70;99.90;;;;;;5041991;28;20462;-81
2022/10/05 00:51:22;;;;;;;12.83;10.70;;;13.70;99.90;;;;;;5043579;28;20811;-79
2022/10/05 00:54:01;;;;;;;12.57;10.47;;;13.70;99.90;;;;;;5042907;28;20463;-81
2022/10/05 00:56:56;;;;;;;11.10;9.97;;;13.70;99.90;;;;;;5042762;28;20492;-81
2022/10/05 00:59:39;;;;;;;12.07;10.77;;;13.70;99.90;;;;;;5042189;28;20439;-82
2022/10/05 01:02:15;;;;;;;12.70;11.37;;;13.80;99.90;;;;;;5041326;28;20439;-79
2022/10/05 01:04:52;;;;;;;12.40;10.60;;;13.80;99.90;;;;;;5039359;28;20501;-81
2022/10/05 01:07:30;;;;;;;11.30;10.13;;;13.80;99.90;;;;;;5040564;28;20979;-81
2022/10/05 01:10:07;;;;;;;13.77;12.33;;;13.80;99.90;;;;;;5040491;28;20443;-80
2022/10/05 01:12:43;;;;;;;12.77;10.40;;;13.80;99.90;;;;;;5040764;28;20439;-80
2022/10/05 01:15:16;;;;;;;12.90;11.20;;;13.80;99.90;;;;;;5040828;28;20893;-82
2022/10/05 01:17:51;;;;;;;13.40;11.07;;;13.80;99.90;;;;;;5041084;28;20435;-81
2022/10/05 01:20:35;;;;;;;13.73;11.03;;;13.80;99.90;;;;;;5040190;28;20949;-80
2022/10/05 01:23:38;;;;;;;12.70;11.43;;;13.90;99.90;;;;;;5040417;28;20434;-81
2022/10/05 01:26:27;;;;;;;12.13;10.73;;;13.90;99.90;;;;;;5027323;28;20827;-81
2022/10/05 01:29:02;;;;;;;11.23;10.13;;;13.90;99.90;;;;;;5039909;28;20463;-82
2022/10/05 01:31:37;;;;;;;12.67;11.47;;;13.90;99.90;;;;;;5039624;28;20557;-82
2022/10/05 01:34:14;;;;;;;13.97;11.00;;;13.90;99.90;;;;;;5039706;28;20467;-81
2022/10/05 01:36:50;;;;;;;12.00;10.83;;;13.90;99.90;;;;;;5040522;28;20935;-80
2022/10/05 01:39:27;;;;;;;12.57;11.00;;;13.90;99.90;;;;;;5041574;28;20419;-81
2022/10/05 01:42:07;;;;;;;13.20;11.90;;;13.90;99.90;;;;;;5039906;28;20442;-80
2022/10/05 01:44:42;;;;;;;14.23;11.70;;;13.90;99.90;;;;;;5041917;28;20821;-80
2022/10/05 01:47:18;;;;;;;11.93;10.73;;;13.90;99.90;;;;;;5040105;28;20469;-80
2022/10/05 01:49:53;;;;;;;12.30;10.87;;;13.90;99.90;;;;;;5039636;28;20439;-80
2022/10/05 01:52:33;;;;;;;12.37;11.23;;;13.90;99.90;;;;;;5039649;28;20446;-81
2022/10/05 01:55:12;;;;;;;12.87;11.43;;;13.90;99.90;;;;;;5039044;28;20467;-80
2022/10/05 01:57:54;;;;;;;12.13;10.83;;;13.90;99.90;;;;;;5039013;28;20430;-81
2022/10/05 02:00:24;;;;;;;12.10;10.90;;;13.90;99.90;;;;;;5039546;28;20540;-81
2022/10/05 02:02:59;;;;;;;12.97;10.80;;;13.90;99.90;;;;;;5038889;28;20554;-79
2022/10/05 02:05:33;;;;;;;12.97;11.47;;;14.00;99.90;;;;;;5038796;28;20470;-81
2022/10/05 02:08:07;;;;;;;13.73;11.30;;;13.90;99.90;;;;;;5038517;28;21015;-81
2022/10/05 02:10:38;;;;;;;12.07;10.83;;;14.00;99.90;;;;;;5038532;28;20446;-79
2022/10/05 02:13:11;;;;;;;12.73;11.40;;;13.90;99.90;;;;;;5038606;28;20451;-80
2022/10/05 02:15:44;;;;;;;15.60;11.70;;;14.00;99.90;;;;;;5038577;28;20455;-80
2022/10/05 02:18:17;;;;;;;14.50;11.27;;;14.00;99.90;;;;;;5037947;28;20470;-81
2022/10/05 02:20:47;;;;;;;11.27;10.27;;;14.00;99.90;;;;;;5040275;28;20779;-79
2022/10/05 02:23:25;;;;;;;12.73;10.80;;;14.00;99.90;;;;;;5038330;28;20455;-81
2022/10/05 02:25:56;;;;;;;12.50;10.00;;;14.00;99.90;;;;;;5037777;28;20491;-80
2022/10/05 02:28:30;;;;;;;12.07;10.87;;;14.00;99.90;;;;;;5037556;28;20557;-81
2022/10/05 02:31:04;;;;;;;12.60;10.33;;;14.00;99.90;;;;;;5037254;28;20458;-81
2022/10/05 02:33:34;;;;;;;11.20;10.00;;;14.00;99.90;;;;;;5037448;28;20470;-81
2022/10/05 02:36:14;;;;;;;10.83;9.73;;;14.00;99.90;;;;;;5037709;28;20522;-80
2022/10/05 02:38:58;;;;;;;11.43;10.10;;;14.00;99.90;;;;;;5037521;28;20497;-80
2022/10/05 02:41:41;;;;;;;10.83;9.83;;;14.00;99.90;;;;;;5037400;28;20447;-80
2022/10/05 02:44:19;;;;;;;11.03;9.93;;;14.10;99.90;;;;;;5037127;28;20482;-80
2022/10/05 02:46:56;;;;;;;11.77;10.50;;;14.10;99.90;;;;;;5036941;28;20452;-80
2022/10/05 02:49:35;;;;;;;10.63;9.50;;;14.10;99.90;;;;;;5036893;28;20530;-81
2022/10/05 02:52:08;;;;;;;11.13;9.43;;;14.10;99.90;;;;;;5043964;28;20438;-81
2022/10/05 02:54:49;;;;;;;14.20;10.57;;;14.10;99.90;;;;;;5048160;28;20497;-81
2022/10/05 02:57:27;;;;;;;11.50;10.00;;;14.10;99.90;;;;;;5046545;28;20466;-82
2022/10/05 03:00:04;;;;;;;14.13;11.90;;;14.10;99.90;;;;;;5046362;28;20497;-82
2022/10/05 03:02:41;;;;;;;11.60;10.40;;;14.10;99.90;;;;;;5046242;28;20462;-80
2022/10/05 03:05:20;;;;;;;14.03;10.77;;;14.20;99.90;;;;;;5045194;28;20466;-80
2022/10/05 03:07:57;;;;;;;15.17;10.37;;;14.20;99.90;;;;;;5040947;28;20494;-80
2022/10/05 03:10:34;;;;;;;13.97;11.17;;;14.20;99.90;;;;;;5041092;28;20443;-81
2022/10/05 03:13:09;;;;;;;13.83;11.47;;;14.20;99.90;;;;;;5044657;28;20873;-81
2022/10/05 03:15:53;;;;;;;13.33;10.63;;;14.20;99.90;;;;;;5043865;28;20517;-81
2022/10/05 03:18:34;;;;;;;13.13;11.80;;;14.20;99.90;;;;;;5043438;28;20510;-81
2022/10/05 03:21:15;;;;;;;12.33;10.97;;;14.20;99.90;;;;;;5044097;28;20787;-79
2022/10/05 03:24:00;;;;;;;12.40;10.10;;;14.20;99.90;;;;;;5042967;28;21024;-81
2022/10/05 03:26:42;;;;;;;15.20;12.27;;;14.20;99.90;;;;;;5042728;28;20443;-79
2022/10/05 03:29:27;;;;;;;11.43;10.20;;;14.20;99.90;;;;;;5043774;28;20518;-79
2022/10/05 03:32:01;;;;;;;14.50;11.20;;;14.20;99.90;;;;;;5043451;28;20455;-80
2022/10/05 03:34:37;;;;;;;14.17;11.17;;;14.20;99.90;;;;;;5042376;28;20482;-79
2022/10/05 03:37:15;;;;;;;13.97;12.47;;;14.20;99.90;;;;;;5044418;28;20463;-80
2022/10/05 03:39:51;;;;;;;12.87;11.20;;;14.20;99.90;;;;;;5044995;28;20904;-80
2022/10/05 03:42:26;;;;;;;14.27;10.90;;;14.20;99.90;;;;;;5044423;28;21034;-81
2022/10/05 03:45:00;;;;;;;12.90;10.80;;;14.20;99.90;;;;;;5041517;28;20477;-82
2022/10/05 03:47:36;;;;;;;14.30;11.17;;;14.30;99.90;;;;;;5043118;28;20952;-81
2022/10/05 03:50:29;;;;;;;12.50;11.00;;;14.20;99.90;;;;;;5042518;28;20467;-80
2022/10/05 03:53:03;;;;;;;12.07;10.87;;;14.30;99.90;;;;;;5058353;28;20535;-80
2022/10/05 03:55:40;;;;;;;13.47;10.90;;;14.30;99.90;;;;;;5041160;28;20481;-79
2022/10/05 03:58:15;;;;;;;12.67;11.47;;;14.30;99.90;;;;;;5041039;28;20457;-81
2022/10/05 04:00:47;;;;;;;13.73;12.30;;;14.30;99.90;;;;;;5042053;28;20450;-81
2022/10/05 04:03:21;;;;;;;12.83;11.13;;;14.30;99.90;;;;;;5040927;28;21011;-82
2022/10/05 04:05:55;;;;;;;12.97;11.60;;;14.30;99.90;;;;;;5042652;28;20469;-80
2022/10/05 04:08:31;;;;;;;13.40;12.07;;;14.30;99.90;;;;;;5041947;28;20557;-81
2022/10/05 04:11:04;;;;;;;12.93;11.73;;;14.30;99.90;;;;;;5042388;28;20446;-81
2022/10/05 04:13:37;;;;;;;12.97;11.33;;;14.20;99.90;;;;;;5041005;28;20469;-80
2022/10/05 04:16:11;;;;;;;15.37;12.27;;;14.20;99.90;;;;;;5041180;28;20439;-81
2022/10/05 04:18:47;;;;;;;13.20;11.90;;;14.20;99.90;;;;;;5041536;28;20493;-80
2022/10/05 04:21:23;;;;;;;13.73;11.83;;;14.20;99.90;;;;;;5040412;28;20478;-81
2022/10/05 04:23:59;;;;;;;15.10;12.60;;;14.20;99.90;;;;;;5040144;28;20475;-81
2022/10/05 04:26:35;;;;;;;14.23;11.70;;;14.20;99.90;;;;;;5040625;28;20782;-80
2022/10/05 04:29:12;;;;;;;16.57;12.67;;;14.20;99.90;;;;;;5040523;28;20871;-81
2022/10/05 04:32:10;;;;;;;16.10;13.03;;;14.20;99.90;;;;;;5038107;28;20458;-79
2022/10/05 04:34:50;;;;;;;16.27;12.40;;;14.20;99.90;;;;;;5039231;28;20486;-82
2022/10/05 04:37:28;;;;;;;14.83;13.33;;;14.20;99.90;;;;;;5039761;28;20473;-82
2022/10/05 04:40:09;;;;;;;14.33;12.97;;;14.20;99.90;;;;;;5040209;28;20922;-82
2022/10/05 04:42:45;;;;;;;13.60;12.20;;;14.10;99.90;;;;;;5039826;28;20961;-81
2022/10/05 04:45:24;;;;;;;14.73;13.20;;;14.10;99.90;;;;;;5041245;28;20459;-82
2022/10/05 04:48:17;;;;;;;14.33;12.73;;;14.10;99.90;;;;;;5039863;28;21001;-82
2022/10/05 04:50:55;;;;;;;15.70;13.90;;;14.10;99.90;;;;;;5039653;28;20575;-81
2022/10/05 04:53:30;;;;;;;15.33;13.53;;;14.10;99.90;;;;;;5038862;28;20482;-81
2022/10/05 04:56:08;;;;;;;14.77;13.27;;;14.10;99.90;;;;;;5038488;28;21000;-81
2022/10/05 04:59:02;;;;;;;14.50;12.80;;;14.00;99.90;;;;;;5038776;28;20460;-81
2022/10/05 05:01:55;;;;;;;15.37;13.80;;;14.00;99.90;;;;;;5038927;28;20435;-81
2022/10/05 05:04:36;;;;;;;17.43;15.53;;;14.00;99.90;;;;;;5038249;28;20475;-81
2022/10/05 05:07:19;;;;;;;16.30;14.60;;;14.00;99.90;;;;;;5038881;28;20944;-82
2022/10/05 05:10:17;;;;;;;15.80;14.20;;;14.00;99.90;;;;;;5038233;28;20477;-82
2022/10/05 05:12:57;;;;;;;14.77;13.13;;;14.00;99.90;;;;;;5039949;28;20475;-81
2022/10/05 05:15:38;;;;;;;15.97;14.37;;;13.90;99.90;;;;;;5038214;28;21071;-82
2022/10/05 05:18:48;;;;;;;15.63;14.00;;;13.90;99.90;;;;;;5038318;28;20530;-81
2022/10/05 05:21:34;;;;;;;16.87;15.10;;;13.90;99.90;;;;;;5038176;28;20501;-81
2022/10/05 05:24:09;;;;;;;18.73;16.87;;;13.90;99.90;;;;;;5037895;28;20471;-81
2022/10/05 05:26:58;;;;;;;16.73;15.10;;;13.90;99.90;;;;;;5044152;28;20529;-82
2022/10/05 05:29:45;;;;;;;17.10;15.20;;;13.90;99.90;;;;;;5040617;28;20463;-81
2022/10/05 05:32:22;;;;;;;17.20;15.50;;;13.90;99.90;;;;;;5039249;28;20455;-82
2022/10/05 05:35:07;;;;;;;18.33;16.50;;;13.90;99.90;;;;;;5042344;28;20488;-80
2022/10/05 05:37:43;;;;;;;17.97;14.90;;;14.00;99.90;;;;;;5042236;28;20515;-82
2022/10/05 05:40:16;;;;;;;16.33;14.37;;;14.00;99.90;;;;;;5037640;28;20518;-80
2022/10/05 05:42:57;;;;;;;17.13;14.10;;;13.90;99.90;;;;;;5036816;28;20451;-79
2022/10/05 05:45:39;;;;;;;17.90;16.00;;;13.90;99.90;;;;;;5037489;28;21050;-79
2022/10/05 05:48:16;;;;;;;18.80;16.00;;;13.90;99.90;;;;;;5041315;28;20439;-80
2022/10/05 05:50:55;;;;;;;16.90;15.10;;;13.90;99.90;;;;;;5042247;28;20463;-80
2022/10/05 05:53:29;;;;;;;18.33;16.30;;;13.90;99.90;;;;;;5041966;28;20493;-79
2022/10/05 05:56:04;;;;;;;21.20;16.50;;;13.90;99.90;;;;;;5039009;28;20467;-80
2022/10/05 05:58:41;;;;;;;18.10;15.67;;;13.90;99.90;;;;;;5036621;28;20447;-80
2022/10/05 06:01:18;;;;;;;17.80;15.97;;;13.90;99.90;;;;;;5036728;28;20500;-81
2022/10/05 06:04:09;;;;;;;18.73;16.93;;;13.90;99.90;;;;;;5036447;28;20894;-81
2022/10/05 06:06:41;;;;;;;15.23;13.63;;;14.00;99.90;;;;;;5036931;28;20473;-78
2022/10/05 06:09:16;;;;;;;19.47;16.93;;;14.00;99.90;;;;;;5035828;28;20470;-80
2022/10/05 06:11:56;;;;;;;16.20;14.60;;;14.00;99.90;;;;;;5037387;28;20439;-79
2022/10/05 06:14:32;;;;;;;16.47;14.63;;;14.00;99.90;;;;;;5036770;28;20849;-79
2022/10/05 06:17:05;;;;;;;17.40;15.80;;;14.00;99.90;;;;;;5038739;28;20443;-79
2022/10/05 06:19:36;;;;;;;16.80;15.20;;;14.00;99.90;;;;;;5042087;28;20435;-80
2022/10/05 06:22:15;;;;;;;16.57;14.90;;;14.00;99.90;;;;;;5040174;28;20489;-80
2022/10/05 06:24:56;;;;;;;17.03;15.23;;;14.00;99.90;;;;;;5041038;28;20466;-80
2022/10/05 06:27:26;;;;;;;16.37;14.17;;;14.00;99.90;;;;;;5043093;28;20804;-79
2022/10/05 06:30:06;;;;;;;16.03;14.53;;;14.10;99.90;;;;;;5041258;28;21042;-80
2022/10/05 06:32:53;;;;;;;17.30;15.50;;;14.10;99.90;;;;;;5042155;28;20451;-79
2022/10/05 06:35:37;;;;;;;17.43;15.70;;;14.10;99.90;;;;;;5040219;28;20462;-80
2022/10/05 06:38:18;;;;;;;16.33;14.63;;;14.10;99.90;;;;;;5039733;28;20810;-79
2022/10/05 06:40:59;;;;;;;21.93;19.67;;;14.10;99.90;;;;;;5041897;28;20432;-80
2022/10/05 06:43:43;;;;;;;17.00;15.30;;;14.20;99.90;;;;;;5042463;28;20439;-78
2022/10/05 06:46:34;;;;;;;16.50;14.90;;;14.20;99.90;;;;;;5039632;28;20454;-80
2022/10/05 06:49:26;;;;;;;17.00;15.20;;;14.20;99.90;;;;;;5037731;28;20426;-78
2022/10/05 06:52:22;;;;;;;17.60;14.53;;;14.20;99.90;;;;;;5044645;28;21011;-79
2022/10/05 06:55:05;;;;;;;16.13;14.13;;;14.20;99.90;;;;;;5045307;28;20470;-80
2022/10/05 06:57:52;;;;;;;16.23;14.60;;;14.30;99.90;;;;;;5040688;28;20443;-80
2022/10/05 07:00:22;;;;;;;18.43;15.90;;;14.30;99.90;;;;;;5043414;28;20801;-79
2022/10/05 07:03:02;;;;;;;17.57;15.60;;;14.30;99.90;;;;;;5047848;28;20449;-81
2022/10/05 07:05:49;;;;;;;16.73;14.73;;;14.30;99.90;;;;;;5046303;28;20479;-78
2022/10/05 07:08:27;;;;;;;16.20;14.50;;;14.30;99.90;;;;;;5043990;28;20443;-79
2022/10/05 07:11:11;;;;;;;16.70;14.07;;;14.30;99.90;;;;;;5038118;28;20481;-79
2022/10/05 07:14:14;;;;;;;16.60;14.60;;;14.40;99.90;;;;;;5040263;28;20481;-80
2022/10/05 07:16:55;;;;;;;16.00;14.40;;;14.40;99.90;;;;;;5030855;28;20874;-78
2022/10/05 07:19:36;;;;;;;16.30;14.70;;;14.40;99.90;;;;;;5035280;28;20435;-78
2022/10/05 07:22:35;;;;;;;16.20;14.60;;;14.40;99.90;;;;;;5035789;28;20462;-78
2022/10/05 07:25:12;;;;;;;16.00;14.30;;;14.50;99.90;;;;;;5035033;28;20871;-78
2022/10/05 07:27:46;;;;;;;16.17;14.57;;;14.50;99.90;;;;;;5034681;28;20449;-77
2022/10/05 07:30:19;;;;;;;16.67;14.90;;;14.50;99.90;;;;;;5034860;28;20463;-77
2022/10/05 07:32:58;;;;;;;15.63;13.70;;;14.50;99.90;;;;;;5034651;28;20871;-79
2022/10/05 07:41:59;;;;;;;18.63;15.00;;;14.50;99.90;;;;;;5035272;28;20798;-78
2022/10/05 07:44:33;;;;;;;19.30;14.83;;;14.50;99.90;;;;;;5036586;28;20458;-78
2022/10/05 07:47:09;;;;;;;17.23;15.50;;;14.50;99.90;;;;;;5036698;28;20434;-79
2022/10/05 07:49:44;;;;;;;15.50;13.90;;;14.50;99.90;;;;;;5035487;28;20453;-78
2022/10/05 07:52:20;;;;;;;14.80;13.30;;;14.50;99.90;;;;;;5035125;28;20454;-79
2022/10/05 07:55:01;;;;;;;17.33;14.00;;;14.60;99.90;;;;;;5034451;28;20524;-78
2022/10/05 07:57:39;;;;;;;15.63;14.03;;;14.60;99.90;;;;;;5036876;28;20443;-80
2022/10/05 08:00:16;;;;;;;14.47;12.93;;;14.60;99.90;;;;;;5037973;28;20450;-78
2022/10/05 08:02:51;;;;;;;14.80;12.90;;;14.70;99.90;;;;;;5037908;28;20951;-80
2022/10/05 08:05:25;;;;;;;14.03;12.37;;;14.80;99.90;;;;;;5038130;28;20585;-78
2022/10/05 08:08:06;;;;;;;13.03;11.73;;;14.80;99.90;;;;;;5037742;28;20435;-78
2022/10/05 08:10:41;;;;;;;15.50;10.97;;;14.90;99.90;;;;;;5036952;28;20485;-78
2022/10/05 08:13:16;;;;;;;13.90;12.33;;;14.90;99.90;;;;;;5037187;28;20541;-79
2022/10/05 08:15:49;;;;;;;13.43;12.13;;;15.00;99.90;;;;;;5037722;28;20468;-79
2022/10/05 08:18:36;;;;;;;13.43;11.30;;;15.00;99.90;;;;;;5046260;28;20442;-78
2022/10/05 08:21:10;;;;;;;13.03;11.67;;;15.10;99.90;;;;;;5045531;28;20419;-80
2022/10/05 08:23:45;;;;;;;12.97;11.67;;;15.10;99.90;;;;;;5043950;28;20520;-80
2022/10/05 08:26:21;;;;;;;11.90;10.70;;;15.10;99.90;;;;;;5039886;28;20429;-80
2022/10/05 08:28:59;;;;;;;12.60;11.30;;;15.20;99.90;;;;;;5040207;28;20932;-80
2022/10/05 08:31:31;;;;;;;11.87;10.77;;;15.20;99.90;;;;;;5039703;28;20482;-80
2022/10/05 08:34:07;;;;;;;11.67;10.57;;;15.20;99.90;;;;;;5041264;28;20466;-79
2022/10/05 08:36:49;;;;;;;12.57;11.27;;;15.30;99.90;;;;;;5040302;28;20927;-79
2022/10/05 08:39:26;;;;;;;12.50;10.43;;;15.30;99.90;;;;;;5039991;28;20468;-80
2022/10/05 08:42:23;;;;;;;14.67;12.13;;;15.40;99.90;;;;;;5041417;28;20494;-80
2022/10/05 08:45:10;;;;;;;12.47;11.27;;;15.40;99.90;;;;;;5026929;28;20493;-80
2022/10/05 08:48:18;;;;;;;12.57;11.40;;;15.40;99.90;;;;;;5038973;28;20414;-80
2022/10/05 08:51:12;;;;;;;12.50;11.20;;;15.50;99.90;;;;;;5038003;28;20470;-79
2022/10/05 08:54:15;;;;;;;14.73;11.00;;;15.50;99.90;;;;;;5039271;28;20821;-80
2022/10/05 08:56:53;;;;;;;13.63;11.27;;;15.50;99.90;;;;;;5055119;28;20811;-80
2022/10/05 08:59:45;;;;;;;12.50;11.20;;;15.50;99.90;;;;;;5037851;28;20427;-78
2022/10/05 09:02:24;;;;;;;12.97;11.60;;;15.50;99.90;;;;;;5038688;28;20787;-81
2022/10/05 09:05:13;;;;;;;12.20;10.77;;;15.60;99.90;;;;;;5038205;28;20456;-79
2022/10/05 09:08:22;;;;;;;11.37;10.37;;;15.60;99.90;;;;;;5045357;28;20462;-80
2022/10/05 09:11:07;;;;;;;12.63;11.33;;;15.60;99.90;;;;;;5049879;28;20498;-79
2022/10/05 09:14:13;;;;;;;13.80;12.40;;;15.60;99.90;;;;;;5043121;28;20441;-80
2022/10/05 09:16:51;;;;;;;12.13;10.90;;;15.60;99.90;;;;;;5039843;28;20439;-80
2022/10/05 09:19:49;;;;;;;12.07;10.80;;;15.70;99.90;;;;;;5037720;28;20505;-80
2022/10/05 09:22:40;;;;;;;11.10;10.00;;;15.70;99.90;;;;;;5039372;28;20443;-78
2022/10/05 09:25:21;;;;;;;12.67;11.50;;;15.70;99.90;;;;;;5037524;28;20441;-79
2022/10/05 09:27:56;;;;;;;12.30;11.10;;;15.80;99.90;;;;;;5038163;28;20445;-79
2022/10/05 09:30:52;;;;;;;12.60;11.40;;;15.80;99.90;;;;;;5039231;28;20832;-80
2022/10/05 09:33:41;;;;;;;11.60;10.50;;;15.80;99.90;;;;;;5033753;28;20443;-79
2022/10/05 09:36:48;;;;;;;11.30;10.13;;;15.90;99.90;;;;;;5037857;28;20454;-79
2022/10/05 09:39:46;;;;;;;12.60;11.50;;;15.90;99.90;;;;;;4983819;28;20504;-80
2022/10/05 09:42:44;;;;;;;11.60;10.60;;;15.90;99.90;;;;;;4999242;28;20526;-79
2022/10/05 09:45:48;;;;;;;11.77;10.70;;;16.00;99.90;;;;;;5037665;28;20480;-79
2022/10/05 09:48:57;;;;;;;10.50;9.40;;;16.00;99.90;;;;;;5037460;28;20786;-79
2022/10/05 09:52:05;;;;;;;12.47;10.70;;;16.10;99.90;;;;;;5038735;28;20968;-79
2022/10/05 09:54:51;;;;;;;10.97;9.87;;;16.10;99.90;;;;;;5000574;28;20452;-79
2022/10/05 09:57:48;;;;;;;13.90;9.87;;;16.20;99.90;;;;;;5038460;28;20410;-81
2022/10/05 10:00:26;;;;;;;11.60;10.50;;;16.20;99.90;;;;;;5038432;28;20518;-80
2022/10/05 10:03:23;;;;;;;10.53;9.53;;;16.30;99.90;;;;;;5038099;28;20855;-78
2022/10/05 10:06:16;;;;;;;33.33;16.97;;;16.30;99.90;;;;;;5038553;28;20502;-78
2022/10/05 10:08:56;;;;;;;10.83;9.30;;;16.40;99.90;;;;;;5039347;28;20395;-79
2022/10/05 10:11:44;;;;;;;8.77;7.90;;;16.40;99.90;;;;;;5035818;28;20968;-79
2022/10/05 10:14:47;;;;;;;11.47;7.47;;;16.40;99.90;;;;;;5035733;28;20471;-77
2022/10/05 10:17:32;;;;;;;12.90;8.33;;;16.40;99.90;;;;;;5035561;28;20477;-80
2022/10/05 10:20:21;;;;;;;8.60;7.80;;;16.50;99.90;;;;;;5036997;28;20527;-80
2022/10/05 10:23:15;;;;;;;7.43;6.73;;;16.50;99.90;;;;;;5037787;28;20402;-78
2022/10/05 10:26:26;;;;;;;7.13;6.43;;;16.60;99.90;;;;;;5037142;28;20439;-78
2022/10/05 10:29:28;;;;;;;9.07;6.43;;;16.70;99.90;;;;;;5039159;28;20405;-80
2022/10/05 10:32:10;;;;;;;6.90;6.20;;;16.70;99.90;;;;;;4991891;28;20529;-78
2022/10/05 10:35:08;;;;;;;6.87;6.00;;;16.80;99.90;;;;;;5039112;28;20550;-79
2022/10/05 10:38:23;;;;;;;6.43;5.83;;;16.80;99.90;;;;;;5037745;28;20419;-79
2022/10/05 10:41:19;;;;;;;7.87;6.50;;;16.90;99.90;;;;;;5036615;28;20429;-79
2022/10/05 10:44:05;;;;;;;7.30;6.60;;;16.90;99.90;;;;;;5010046;28;20437;-80
2022/10/05 10:46:44;;;;;;;6.70;6.00;;;17.00;99.90;;;;;;5036135;28;20443;-79
2022/10/05 10:49:25;;;;;;;7.63;6.07;;;17.00;99.90;;;;;;5038457;28;20405;-79
2022/10/05 10:52:11;;;;;;;7.20;6.27;;;17.10;99.90;;;;;;5037291;28;20441;-77
2022/10/05 10:55:05;;;;;;;7.07;6.37;;;17.10;99.90;;;;;;5034375;28;20434;-77
2022/10/05 10:57:53;;;;;;;7.23;5.70;;;17.10;99.90;;;;;;5034969;28;20433;-78
2022/10/05 11:00:47;;;;;;;6.63;5.90;;;17.10;99.90;;;;;;5034106;28;20413;-79
2022/10/05 11:03:55;;;;;;;6.27;5.67;;;17.20;99.90;;;;;;5032693;28;20790;-79
2022/10/05 11:06:53;;;;;;;6.90;5.83;;;17.20;99.90;;;;;;5038401;28;20402;-79
2022/10/05 11:09:52;;;;;;;6.43;5.83;;;17.30;99.90;;;;;;4995174;28;20421;-80
2022/10/05 11:13:05;;;;;;;6.00;5.40;;;17.30;99.90;;;;;;5005381;28;20503;-81
2022/10/05 11:15:59;;;;;;;6.43;5.03;;;17.40;99.90;;;;;;5004061;28;20881;-79
2022/10/05 11:18:46;;;;;;;6.53;5.20;;;17.50;99.90;;;;;;5036245;28;20503;-81
2022/10/05 11:21:29;;;;;;;6.53;5.70;;;17.50;99.90;;;;;;5035774;28;20799;-79
2022/10/05 11:24:42;;;;;;;5.87;5.07;;;17.60;99.90;;;;;;5036687;28;20834;-80
2022/10/05 11:27:34;;;;;;;4.87;4.47;;;17.70;99.90;;;;;;5037643;28;21051;-79
2022/10/05 11:30:18;;;;;;;6.23;4.23;;;17.80;99.90;;;;;;5036750;28;20443;-81
2022/10/05 11:33:28;;;;;;;5.80;4.37;;;17.80;99.90;;;;;;5039279;28;20438;-78
2022/10/05 11:36:25;;;;;;;4.47;3.67;;;17.90;99.90;;;;;;5042882;28;20454;-81
2022/10/05 11:39:22;;;;;;;5.30;4.50;;;17.90;99.90;;;;;;5039654;28;20436;-78
2022/10/05 11:42:18;;;;;;;4.50;3.50;;;18.00;99.90;;;;;;5038612;28;20431;-78
2022/10/05 11:45:20;;;;;;;4.30;3.80;;;18.00;99.90;;;;;;5001106;28;20471;-80
2022/10/05 11:48:14;;;;;;;4.83;3.43;;;18.00;99.90;;;;;;5039990;28;20416;-78
2022/10/05 11:50:53;;;;;;;3.90;3.50;;;18.10;99.90;;;;;;5041341;28;20421;-80
2022/10/05 11:53:27;;;;;;;3.70;3.20;;;18.10;99.90;;;;;;5039760;28;20459;-78
2022/10/05 11:56:06;;;;;;;4.17;3.23;;;18.10;99.90;;;;;;5039149;28;20418;-79
2022/10/05 11:58:42;;;;;;;4.50;3.70;;;18.20;99.90;;;;;;5041541;28;20522;-79
2022/10/05 12:01:17;;;;;;;4.60;4.10;;;18.20;99.90;;;;;;5040794;28;20454;-79
2022/10/05 12:03:58;;;;;;;5.70;3.60;;;18.30;99.90;;;;;;5040214;28;20476;-80
2022/10/05 12:06:48;;;;;;;4.50;3.77;;;18.30;99.90;;;;;;5044514;28;20469;-80
2022/10/05 12:09:28;;;;;;;4.67;3.97;;;18.40;99.90;;;;;;5041570;28;20447;-79
2022/10/05 12:12:09;;;;;;;4.10;3.10;;;18.40;99.90;;;;;;5041203;28;20971;-80
2022/10/05 12:14:47;;;;;;;4.80;3.40;;;18.50;99.90;;;;;;5037542;28;20561;-79
2022/10/05 12:17:25;;;;;;;6.20;3.23;;;18.50;99.90;;;;;;5038606;28;20461;-78
2022/10/05 12:19:59;;;;;;;9.13;4.53;;;18.60;99.90;;;;;;5039832;28;20452;-80
2022/10/05 12:22:33;;;;;;;5.80;4.10;;;18.60;99.90;;;;;;5040767;28;20401;-79
2022/10/05 12:25:17;;;;;;;5.20;3.17;;;18.70;99.90;;;;;;5039167;28;20486;-78
2022/10/05 12:27:48;;;;;;;4.83;3.57;;;18.80;99.90;;;;;;5039044;28;20541;-78
2022/10/05 12:30:26;;;;;;;4.20;3.47;;;18.90;99.90;;;;;;5039697;28;20429;-79
2022/10/05 12:33:03;;;;;;;5.97;3.93;;;19.00;99.90;;;;;;5038413;28;20467;-78
2022/10/05 12:35:40;;;;;;;4.00;3.27;;;19.10;99.90;;;;;;5038088;28;20469;-79
2022/10/05 12:38:27;;;;;;;6.33;3.57;;;19.10;99.90;;;;;;5037539;28;20551;-78
2022/10/05 12:41:05;;;;;;;4.87;3.13;;;19.20;99.90;;;;;;5038696;28;20423;-79
2022/10/05 12:43:44;;;;;;;4.90;3.60;;;19.20;99.90;;;;;;5037801;28;20489;-79
2022/10/05 12:46:22;;;;;;;4.70;3.97;;;19.30;99.90;;;;;;5039808;28;20877;-80
2022/10/05 12:49:30;;;;;;;4.80;3.90;;;19.30;99.90;;;;;;5040553;28;20454;-78
2022/10/05 12:52:02;;;;;;;6.73;3.63;;;19.30;99.90;;;;;;5026283;28;20447;-80
2022/10/05 12:54:42;;;;;;;6.03;4.40;;;19.30;99.90;;;;;;5039973;28;20483;-78
2022/10/05 12:57:19;;;;;;;4.57;3.67;;;19.40;99.90;;;;;;5039673;28;20443;-79
2022/10/05 12:59:53;;;;;;;6.83;4.03;;;19.40;99.90;;;;;;5037920;28;20917;-77
2022/10/05 13:02:31;;;;;;;5.50;4.60;;;19.50;99.90;;;;;;5037833;28;20990;-77
2022/10/05 13:05:13;;;;;;;5.30;4.20;;;19.50;99.90;;;;;;5039725;28;20459;-79
2022/10/05 13:07:57;;;;;;;5.10;3.80;;;19.60;99.90;;;;;;5038558;28;20461;-80
2022/10/05 13:10:33;;;;;;;6.13;3.97;;;19.60;99.90;;;;;;5040811;28;20455;-79
2022/10/05 13:13:15;;;;;;;5.83;4.40;;;19.60;99.90;;;;;;5040239;28;20836;-79
2022/10/05 13:15:49;;;;;;;6.43;4.37;;;19.60;99.90;;;;;;5036845;28;20443;-77
2022/10/05 13:18:28;;;;;;;5.40;4.90;;;19.70;99.90;;;;;;5038966;28;20418;-79
2022/10/05 13:21:03;;;;;;;5.63;5.03;;;19.70;99.90;;;;;;5039440;28;20428;-78
2022/10/05 13:23:42;;;;;;;5.60;5.10;;;19.70;99.90;;;;;;5037797;28;20477;-81
2022/10/05 13:26:16;;;;;;;5.07;4.57;;;19.80;99.90;;;;;;5037545;28;20987;-78
2022/10/05 13:28:50;;;;;;;6.30;5.60;;;19.80;99.90;;;;;;5039161;28;20509;-80
2022/10/05 13:31:23;;;;;;;5.00;4.17;;;19.80;99.90;;;;;;5038747;28;20469;-80
2022/10/05 13:34:16;;;;;;;7.03;5.20;;;19.80;99.90;;;;;;5038323;28;20562;-80
2022/10/05 13:36:53;;;;;;;5.50;4.73;;;19.90;99.90;;;;;;5038862;28;20450;-81
2022/10/05 13:39:33;;;;;;;6.27;4.43;;;19.80;99.90;;;;;;5042651;28;20435;-80
2022/10/05 13:42:09;;;;;;;7.17;4.63;;;19.80;99.90;;;;;;5041722;28;20431;-81
2022/10/05 13:44:45;;;;;;;7.00;5.10;;;19.80;99.90;;;;;;5043260;28;20501;-81
2022/10/05 13:47:23;;;;;;;5.93;4.07;;;19.80;99.90;;;;;;5043062;28;20434;-79
2022/10/05 13:49:57;;;;;;;8.33;5.23;;;19.70;99.90;;;;;;5041215;28;20514;-81
2022/10/05 13:52:43;;;;;;;4.80;4.30;;;19.70;99.90;;;;;;5038544;28;20449;-81